Time;durP1;ratioP1;P1;durP2;ratioP2;P2;SDS_P1;SDS_P2;PMS_P1;PMS_P2;Temp;Humidity;BMP_temperature;BMP_pressure;BME280_temperature;BME280_humidity;BME280_pressure;Samples;Min_cycle;Max_cycle;Signal;HPM_P1;HPM_P2
2021/06/02 00:02:12;;;;;;;0.93;0.65;;;16.40;99.90;;;;;;5116877;28;20826;-57
2021/06/02 00:04:44;;;;;;;1.00;0.60;;;16.40;99.90;;;;;;5117007;28;20507;-58
2021/06/02 00:07:11;;;;;;;0.80;0.50;;;16.40;99.90;;;;;;5117217;28;20456;-57
2021/06/02 00:09:38;;;;;;;1.48;0.60;;;16.40;99.90;;;;;;5117039;28;20428;-58
2021/06/02 00:12:08;;;;;;;0.80;0.60;;;16.30;99.90;;;;;;5116609;28;20675;-58
2021/06/02 00:14:36;;;;;;;1.85;0.70;;;16.20;99.90;;;;;;5116618;28;20503;-58
2021/06/02 00:17:03;;;;;;;1.10;0.67;;;16.20;99.90;;;;;;5115975;28;20935;-58
2021/06/02 00:19:30;;;;;;;1.50;0.70;;;16.20;99.90;;;;;;5116339;28;20515;-58
2021/06/02 00:21:59;;;;;;;1.00;0.70;;;16.20;99.90;;;;;;5115598;28;20913;-58
2021/06/02 00:24:26;;;;;;;1.02;0.80;;;16.10;99.90;;;;;;5116263;28;20448;-57
2021/06/02 00:26:54;;;;;;;1.30;0.80;;;16.00;99.90;;;;;;5116429;28;20476;-58
2021/06/02 00:29:21;;;;;;;2.00;0.70;;;16.00;99.90;;;;;;5115822;28;20502;-58
2021/06/02 00:31:49;;;;;;;1.10;0.80;;;15.90;99.90;;;;;;5116313;28;20931;-59
2021/06/02 00:34:18;;;;;;;1.38;0.80;;;15.80;99.90;;;;;;5115836;28;20786;-58
2021/06/02 00:36:45;;;;;;;1.80;0.80;;;15.80;99.90;;;;;;5114703;28;20515;-58
2021/06/02 00:39:13;;;;;;;2.10;0.80;;;15.80;99.90;;;;;;5114460;28;20618;-58
2021/06/02 00:41:45;;;;;;;1.20;0.80;;;15.70;99.90;;;;;;5114991;28;20459;-58
2021/06/02 00:44:14;;;;;;;1.25;0.80;;;15.70;99.90;;;;;;5115062;28;20455;-58
2021/06/02 00:46:40;;;;;;;1.20;0.80;;;15.70;99.90;;;;;;5115194;28;20776;-58
2021/06/02 00:49:10;;;;;;;1.40;0.80;;;15.70;99.90;;;;;;5114561;28;20519;-59
2021/06/02 00:51:36;;;;;;;1.30;1.20;;;15.60;99.90;;;;;;5115407;28;20452;-58
2021/06/02 00:54:04;;;;;;;1.10;0.80;;;15.60;99.90;;;;;;5115660;28;20423;-58
2021/06/02 00:56:36;;;;;;;1.70;0.80;;;15.50;99.90;;;;;;5116575;28;20866;-58
2021/06/02 00:59:04;;;;;;;2.00;0.70;;;15.50;99.90;;;;;;5115225;28;20944;-58
2021/06/02 01:05:13;;;;;;;1.60;0.70;;;15.40;99.90;;;;;;5111818;28;20436;-58
2021/06/02 01:07:40;;;;;;;4.07;0.70;;;15.40;99.90;;;;;;5111485;28;20412;-58
2021/06/02 01:10:08;;;;;;;1.30;0.90;;;15.40;99.90;;;;;;5112235;28;20447;-58
2021/06/02 01:12:34;;;;;;;1.40;0.80;;;15.40;99.90;;;;;;5111578;28;20427;-58
2021/06/02 01:15:01;;;;;;;1.30;0.80;;;15.30;99.90;;;;;;5111784;28;20492;-57
2021/06/02 01:17:29;;;;;;;1.20;0.70;;;15.30;99.90;;;;;;5113917;28;20523;-58
2021/06/02 01:19:58;;;;;;;2.00;0.80;;;15.40;99.90;;;;;;5115365;28;20522;-58
2021/06/02 01:22:28;;;;;;;1.30;0.70;;;15.40;99.90;;;;;;5114208;28;20466;-58
2021/06/02 01:24:54;;;;;;;1.07;0.70;;;15.40;99.90;;;;;;5114456;28;20435;-58
2021/06/02 01:27:21;;;;;;;1.90;0.80;;;15.40;99.90;;;;;;5115211;28;20846;-58
2021/06/02 01:29:49;;;;;;;1.02;0.75;;;15.30;99.90;;;;;;5113548;28;20601;-58
2021/06/02 01:32:30;;;;;;;1.00;0.70;;;15.20;99.90;;;;;;5113581;28;20454;-58
2021/06/02 01:35:29;;;;;;;1.70;0.80;;;15.10;99.90;;;;;;5112266;28;20456;-57
2021/06/02 01:38:41;;;;;;;1.00;0.80;;;15.00;99.90;;;;;;5085798;28;20515;-58
2021/06/02 01:41:24;;;;;;;2.42;0.80;;;15.00;99.90;;;;;;5112256;28;20942;-58
2021/06/02 01:44:40;;;;;;;1.10;0.80;;;14.90;99.90;;;;;;5111470;28;20762;-58
2021/06/02 01:47:42;;;;;;;1.10;0.70;;;14.90;99.90;;;;;;5112897;28;20522;-58
2021/06/02 01:50:35;;;;;;;1.27;0.80;;;14.90;99.90;;;;;;5105241;28;20457;-59
2021/06/02 01:53:43;;;;;;;1.30;0.88;;;14.80;99.90;;;;;;5114539;28;20494;-59
2021/06/02 01:56:29;;;;;;;1.30;0.70;;;14.80;99.90;;;;;;5106584;28;20457;-58
2021/06/02 01:59:33;;;;;;;1.30;0.80;;;14.80;99.90;;;;;;5100403;28;20538;-58
2021/06/02 02:02:26;;;;;;;0.80;0.63;;;14.70;99.90;;;;;;5113452;28;20477;-58
2021/06/02 02:05:12;;;;;;;1.90;0.70;;;14.70;99.90;;;;;;5106688;28;20491;-58
2021/06/02 02:08:07;;;;;;;1.80;0.70;;;14.60;99.90;;;;;;5102584;28;20442;-58
2021/06/02 02:10:39;;;;;;;1.00;0.80;;;14.50;99.90;;;;;;5113941;28;20808;-58
2021/06/02 02:13:30;;;;;;;1.80;0.70;;;14.60;99.90;;;;;;5114162;28;20447;-59
2021/06/02 02:16:34;;;;;;;1.13;0.70;;;14.60;99.90;;;;;;5114523;28;20442;-59
2021/06/02 02:19:24;;;;;;;0.90;0.70;;;14.60;99.90;;;;;;5070862;28;20588;-58
2021/06/02 02:21:57;;;;;;;1.00;0.80;;;14.60;99.90;;;;;;5070412;28;20659;-58
2021/06/02 02:24:29;;;;;;;1.17;0.70;;;14.60;99.90;;;;;;5091587;28;20431;-58
2021/06/02 02:27:00;;;;;;;1.00;0.70;;;14.50;99.90;;;;;;5105624;28;20431;-58
2021/06/02 02:29:46;;;;;;;1.10;0.80;;;14.30;99.90;;;;;;5113498;28;20451;-58
2021/06/02 02:32:25;;;;;;;1.07;0.80;;;14.30;99.90;;;;;;5105486;28;20440;-58
2021/06/02 02:35:16;;;;;;;1.15;0.80;;;14.20;99.90;;;;;;5100717;28;20499;-57
2021/06/02 02:37:48;;;;;;;1.17;0.73;;;14.20;99.90;;;;;;5114434;28;20522;-57
2021/06/02 02:40:25;;;;;;;1.20;0.77;;;14.20;99.90;;;;;;5113237;28;20491;-58
2021/06/02 02:42:59;;;;;;;1.50;0.80;;;14.20;99.90;;;;;;5102492;28;20919;-59
2021/06/02 02:45:34;;;;;;;1.40;0.90;;;14.10;99.90;;;;;;5104243;28;20546;-59
2021/06/02 02:48:23;;;;;;;1.00;0.80;;;14.10;99.90;;;;;;5113646;28;20491;-58
2021/06/02 02:51:04;;;;;;;1.20;0.80;;;14.10;99.90;;;;;;5105211;28;20526;-58
2021/06/02 02:53:37;;;;;;;1.13;0.80;;;14.10;99.90;;;;;;5113972;28;20424;-58
2021/06/02 02:56:12;;;;;;;0.88;0.75;;;14.10;99.90;;;;;;5114127;28;20431;-58
2021/06/02 02:58:50;;;;;;;1.00;0.70;;;14.10;99.90;;;;;;5114921;28;20946;-58
2021/06/02 03:01:25;;;;;;;1.17;0.70;;;14.00;99.90;;;;;;5118745;28;20726;-58
2021/06/02 03:03:58;;;;;;;1.90;0.82;;;13.90;99.90;;;;;;5117818;28;20416;-58
2021/06/02 03:06:31;;;;;;;1.50;0.80;;;13.90;99.90;;;;;;5118158;28;20473;-58
2021/06/02 03:09:02;;;;;;;2.40;0.90;;;13.90;99.90;;;;;;5117060;28;20723;-58
2021/06/02 03:11:37;;;;;;;1.00;0.70;;;13.90;99.90;;;;;;5117423;28;20427;-58
2021/06/02 03:14:15;;;;;;;1.10;0.70;;;13.90;99.90;;;;;;5117604;28;20506;-58
2021/06/02 03:16:50;;;;;;;0.98;0.70;;;13.80;99.90;;;;;;5117907;28;20578;-58
2021/06/02 03:19:19;;;;;;;1.02;0.70;;;13.80;99.90;;;;;;5116731;28;20843;-57
2021/06/02 03:21:59;;;;;;;1.30;0.70;;;13.90;99.90;;;;;;5117721;28;20514;-57
2021/06/02 03:25:01;;;;;;;1.10;0.70;;;13.80;99.90;;;;;;5116075;28;20420;-57
2021/06/02 03:27:34;;;;;;;1.30;0.60;;;13.80;99.90;;;;;;5107442;28;20495;-58
2021/06/02 03:30:24;;;;;;;1.42;0.70;;;13.90;99.90;;;;;;5115660;28;20460;-57
2021/06/02 03:33:21;;;;;;;0.98;0.75;;;13.90;99.90;;;;;;5115948;28;20503;-59
2021/06/02 03:35:56;;;;;;;1.50;0.98;;;13.90;99.90;;;;;;5116254;28;20731;-59
2021/06/02 03:38:49;;;;;;;1.75;0.80;;;13.90;99.90;;;;;;5116434;28;20471;-60
2021/06/02 03:41:29;;;;;;;1.38;0.90;;;13.80;99.90;;;;;;5117903;28;20424;-60
2021/06/02 03:44:12;;;;;;;1.40;0.80;;;13.70;99.90;;;;;;5116946;28;20507;-60
2021/06/02 03:46:53;;;;;;;1.30;0.70;;;13.70;99.90;;;;;;5116836;28;20462;-59
2021/06/02 03:49:29;;;;;;;1.40;0.90;;;13.60;99.90;;;;;;5115685;28;20504;-60
2021/06/02 03:52:03;;;;;;;1.70;0.80;;;13.60;99.90;;;;;;5111319;28;20416;-60
2021/06/02 03:54:35;;;;;;;1.30;1.10;;;13.60;99.90;;;;;;5116347;28;20693;-60
2021/06/02 03:57:15;;;;;;;1.20;0.90;;;13.60;99.90;;;;;;5117264;28;20476;-60
2021/06/02 03:59:44;;;;;;;1.52;0.90;;;13.60;99.90;;;;;;5116754;28;20427;-57
2021/06/02 04:02:20;;;;;;;1.00;0.80;;;13.60;99.90;;;;;;5116468;28;20415;-59
2021/06/02 04:05:15;;;;;;;1.33;0.77;;;13.60;99.90;;;;;;5117355;28;20436;-60
2021/06/02 04:07:50;;;;;;;2.10;0.90;;;13.60;99.90;;;;;;5114687;28;20428;-59
2021/06/02 04:10:30;;;;;;;1.08;0.70;;;13.60;99.90;;;;;;5107939;28;20876;-60
2021/06/02 04:13:05;;;;;;;1.30;0.80;;;13.60;99.90;;;;;;5117348;28;20852;-59
2021/06/02 04:15:36;;;;;;;2.17;0.90;;;13.60;99.90;;;;;;5116406;28;20424;-58
2021/06/02 04:18:04;;;;;;;1.60;0.80;;;13.60;99.90;;;;;;5116087;28;20424;-59
2021/06/02 04:20:32;;;;;;;1.10;0.90;;;13.60;99.90;;;;;;5115898;28;20439;-59
2021/06/02 04:23:03;;;;;;;1.27;0.80;;;13.60;99.90;;;;;;5116331;28;20416;-59
2021/06/02 04:25:31;;;;;;;1.50;0.80;;;13.60;99.90;;;;;;5116212;28;20428;-59
2021/06/02 04:28:00;;;;;;;1.20;0.90;;;13.60;99.90;;;;;;5115582;28;20442;-59
2021/06/02 04:30:31;;;;;;;2.10;0.90;;;13.60;99.90;;;;;;5108475;28;20421;-59
2021/06/02 04:33:00;;;;;;;1.42;0.85;;;13.60;99.90;;;;;;5116907;28;20832;-59
2021/06/02 04:35:27;;;;;;;1.90;0.98;;;13.60;99.90;;;;;;5116947;28;20475;-59
2021/06/02 04:37:57;;;;;;;1.30;0.90;;;13.70;99.90;;;;;;5115721;28;20437;-59
2021/06/02 04:40:24;;;;;;;2.00;0.80;;;13.70;99.90;;;;;;5116123;28;20420;-61
2021/06/02 04:42:51;;;;;;;1.70;1.00;;;13.70;99.90;;;;;;5116219;28;20763;-59
2021/06/02 04:45:24;;;;;;;1.27;0.90;;;13.70;99.90;;;;;;5115934;28;20831;-58
2021/06/02 04:47:52;;;;;;;2.50;0.80;;;13.70;99.90;;;;;;5116109;28;20416;-58
2021/06/02 04:50:25;;;;;;;1.83;0.90;;;13.80;99.90;;;;;;5115364;28;20493;-59
2021/06/02 04:53:27;;;;;;;1.67;0.97;;;13.80;99.90;;;;;;5115435;28;20431;-59
2021/06/02 04:56:32;;;;;;;1.50;1.00;;;13.90;99.90;;;;;;5107024;28;20846;-59
2021/06/02 04:59:28;;;;;;;1.65;1.00;;;14.10;99.90;;;;;;5103710;28;20428;-59
2021/06/02 05:02:22;;;;;;;1.45;1.00;;;14.30;99.90;;;;;;5113736;28;20424;-59
2021/06/02 05:05:18;;;;;;;1.30;0.93;;;14.30;99.90;;;;;;5121945;27;20428;-59
2021/06/02 05:08:29;;;;;;;1.80;1.00;;;14.40;99.90;;;;;;5126167;27;20486;-59
2021/06/02 05:11:37;;;;;;;1.83;0.70;;;14.50;99.90;;;;;;5133362;27;20475;-59
2021/06/02 05:14:39;;;;;;;1.00;0.70;;;14.50;99.90;;;;;;5135524;27;20426;-59
2021/06/02 05:17:41;;;;;;;1.30;0.63;;;14.50;99.90;;;;;;5135281;27;20756;-59
2021/06/02 05:20:51;;;;;;;1.02;0.70;;;14.60;99.90;;;;;;5135751;27;20410;-59
2021/06/02 05:23:50;;;;;;;1.00;0.70;;;14.60;99.90;;;;;;5135196;27;20847;-59
2021/06/02 05:26:36;;;;;;;1.60;0.70;;;14.60;99.90;;;;;;5134897;27;20414;-59
2021/06/02 05:29:41;;;;;;;1.00;0.70;;;14.70;99.90;;;;;;5135035;27;20550;-59
2021/06/02 05:32:53;;;;;;;1.30;0.70;;;14.80;99.90;;;;;;5134506;27;20467;-59
2021/06/02 05:35:59;;;;;;;1.10;0.70;;;14.80;99.90;;;;;;5125994;27;20859;-59
2021/06/02 05:38:50;;;;;;;1.00;0.80;;;14.90;99.90;;;;;;5115880;27;20475;-59
2021/06/02 05:41:41;;;;;;;1.70;0.70;;;15.00;99.90;;;;;;5126404;27;20911;-59
2021/06/02 05:44:53;;;;;;;1.00;0.70;;;15.00;99.90;;;;;;5134144;27;20658;-59
2021/06/02 05:48:12;;;;;;;1.10;0.80;;;15.10;99.90;;;;;;5123923;27;20433;-59
2021/06/02 05:51:32;;;;;;;2.27;0.80;;;15.20;99.90;;;;;;5121692;27;20485;-60
2021/06/02 05:54:36;;;;;;;1.60;0.80;;;15.20;99.90;;;;;;5070622;28;20736;-59
2021/06/02 05:57:34;;;;;;;1.77;0.80;;;15.20;99.90;;;;;;5116047;27;20514;-59
2021/06/02 06:00:39;;;;;;;1.00;0.68;;;15.30;99.90;;;;;;5113140;28;20426;-58
2021/06/02 06:03:47;;;;;;;1.00;0.68;;;15.40;99.90;;;;;;5114176;28;20835;-58
2021/06/02 06:06:24;;;;;;;1.30;0.70;;;15.50;99.90;;;;;;5112713;28;20428;-59
2021/06/02 06:09:28;;;;;;;1.20;0.70;;;15.60;99.90;;;;;;5120680;27;20766;-59
2021/06/02 06:12:52;;;;;;;1.30;0.77;;;15.70;99.90;;;;;;5128377;27;20419;-56
2021/06/02 06:15:57;;;;;;;1.00;0.70;;;15.80;99.90;;;;;;5144395;27;20910;-59
2021/06/02 06:19:03;;;;;;;1.50;0.70;;;15.90;99.90;;;;;;5132336;27;20420;-59
2021/06/02 06:21:59;;;;;;;0.90;0.70;;;16.00;99.90;;;;;;5112022;28;20427;-59
2021/06/02 06:24:31;;;;;;;1.20;0.60;;;16.20;99.90;;;;;;5111513;28;20423;-59
2021/06/02 06:27:03;;;;;;;1.60;0.70;;;16.30;99.90;;;;;;5125625;27;20589;-58
2021/06/02 06:29:37;;;;;;;1.10;0.63;;;16.40;99.90;;;;;;5131217;27;20630;-59
2021/06/02 06:32:05;;;;;;;0.90;0.60;;;16.60;99.90;;;;;;5133024;27;20410;-59
2021/06/02 06:34:35;;;;;;;0.80;0.70;;;16.70;99.90;;;;;;5132584;27;20430;-59
2021/06/02 06:37:03;;;;;;;0.80;0.60;;;16.80;99.90;;;;;;5126305;27;20428;-59
2021/06/02 06:39:47;;;;;;;1.05;0.70;;;16.90;99.90;;;;;;5112341;28;20519;-59
2021/06/02 06:42:17;;;;;;;0.80;0.60;;;17.00;99.90;;;;;;5112948;28;20424;-59
2021/06/02 06:44:47;;;;;;;0.80;0.57;;;17.20;99.90;;;;;;5112894;28;20416;-58
2021/06/02 06:47:25;;;;;;;1.40;0.80;;;17.30;99.90;;;;;;5113049;28;20412;-59
2021/06/02 06:49:56;;;;;;;1.40;0.70;;;17.50;99.90;;;;;;5112092;28;20419;-63
2021/06/02 06:52:24;;;;;;;1.60;0.70;;;17.60;99.90;;;;;;5112100;28;20421;-62
2021/06/02 06:54:52;;;;;;;0.80;0.60;;;17.80;99.90;;;;;;5111783;28;20992;-61
2021/06/02 06:57:20;;;;;;;1.17;0.70;;;17.90;99.90;;;;;;5111200;28;20784;-60
2021/06/02 06:59:48;;;;;;;2.17;0.95;;;18.00;99.90;;;;;;5111847;28;20485;-61
2021/06/02 07:02:15;;;;;;;2.00;0.98;;;18.00;99.90;;;;;;5112110;28;20416;-61
2021/06/02 07:04:43;;;;;;;1.10;0.80;;;18.00;99.90;;;;;;5112613;28;20422;-61
2021/06/02 07:07:10;;;;;;;1.50;1.00;;;18.10;99.90;;;;;;5113979;28;20423;-62
2021/06/02 07:09:38;;;;;;;2.35;1.00;;;18.20;99.90;;;;;;5108918;28;20430;-62
2021/06/02 07:12:07;;;;;;;2.60;1.00;;;18.30;99.90;;;;;;5109986;28;20411;-62
2021/06/02 07:14:37;;;;;;;2.10;1.20;;;18.40;99.90;;;;;;5110760;28;20732;-61
2021/06/02 07:17:06;;;;;;;1.30;1.00;;;18.40;99.90;;;;;;5109939;28;20506;-61
2021/06/02 07:19:34;;;;;;;2.20;0.85;;;18.50;99.90;;;;;;5112386;28;20432;-61
2021/06/02 07:22:01;;;;;;;51.90;7.50;;;18.60;99.90;;;;;;5110309;28;20801;-62
2021/06/02 07:24:29;;;;;;;8.80;1.55;;;18.70;99.90;;;;;;5109806;28;20442;-62
2021/06/02 07:26:56;;;;;;;11.77;1.20;;;18.90;99.90;;;;;;5102139;28;20423;-63
2021/06/02 07:29:24;;;;;;;22.08;4.40;;;18.90;99.90;;;;;;5112473;28;20408;-61
2021/06/02 07:31:52;;;;;;;11.75;1.60;;;19.00;99.90;;;;;;5112657;28;20416;-60
2021/06/02 07:34:21;;;;;;;8.00;1.20;;;19.10;99.90;;;;;;5115543;28;20432;-60
2021/06/02 07:36:48;;;;;;;4.90;1.00;;;19.10;99.90;;;;;;5111555;28;20435;-61
2021/06/02 07:39:20;;;;;;;2.40;0.90;;;19.20;99.90;;;;;;5136745;27;20890;-62
2021/06/02 07:41:47;;;;;;;1.70;0.90;;;19.40;99.90;;;;;;5134968;27;20814;-61
2021/06/02 07:44:14;;;;;;;2.53;0.80;;;19.50;99.90;;;;;;5130901;27;20411;-60
2021/06/02 07:46:41;;;;;;;1.60;0.90;;;19.70;99.90;;;;;;5123845;27;20419;-63
2021/06/02 07:49:09;;;;;;;2.65;0.80;;;19.70;99.90;;;;;;5114767;27;20903;-61
2021/06/02 07:51:37;;;;;;;1.20;0.80;;;19.90;99.90;;;;;;5114400;28;20412;-62
2021/06/02 07:54:04;;;;;;;1.90;1.00;;;20.00;99.90;;;;;;5122884;27;20429;-60
2021/06/02 07:56:31;;;;;;;1.85;0.80;;;20.00;99.90;;;;;;5134340;27;20438;-61
2021/06/02 07:58:57;;;;;;;1.20;0.90;;;20.20;99.90;;;;;;5136185;27;20483;-61
2021/06/02 08:01:24;;;;;;;2.10;0.90;;;20.30;99.90;;;;;;5134965;27;20426;-62
2021/06/02 08:03:51;;;;;;;1.00;0.80;;;20.20;99.90;;;;;;5132916;27;20423;-61
2021/06/02 08:06:18;;;;;;;2.00;0.90;;;20.20;99.90;;;;;;5135828;27;20541;-60
2021/06/02 08:08:46;;;;;;;1.40;0.73;;;20.20;99.90;;;;;;5137512;27;20414;-60
2021/06/02 08:11:12;;;;;;;2.50;0.70;;;20.30;99.90;;;;;;5135260;27;20429;-60
2021/06/02 08:13:39;;;;;;;1.20;0.70;;;20.50;99.90;;;;;;5135570;27;20426;-61
2021/06/02 08:16:06;;;;;;;1.70;0.70;;;20.70;99.90;;;;;;5149191;27;20493;-61
2021/06/02 08:18:32;;;;;;;2.03;0.70;;;20.70;99.90;;;;;;5144470;27;20427;-62
2021/06/02 08:20:59;;;;;;;1.10;0.70;;;20.80;99.90;;;;;;5135618;27;20906;-61
2021/06/02 08:23:25;;;;;;;0.98;0.70;;;21.00;99.90;;;;;;5136169;27;20409;-61
2021/06/02 08:25:53;;;;;;;2.30;0.60;;;21.10;99.90;;;;;;5141938;27;20431;-61
2021/06/02 08:28:20;;;;;;;1.10;0.70;;;21.30;99.90;;;;;;5152723;27;20417;-62
2021/06/02 08:30:47;;;;;;;1.30;0.60;;;21.30;99.90;;;;;;5157048;27;20914;-62
2021/06/02 08:33:14;;;;;;;1.00;0.60;;;21.10;99.90;;;;;;5157588;27;20420;-61
2021/06/02 08:35:41;;;;;;;1.35;0.60;;;21.20;99.90;;;;;;5157036;27;20439;-62
2021/06/02 08:38:09;;;;;;;1.20;0.60;;;21.40;99.90;;;;;;5157514;27;20473;-62
2021/06/02 08:40:36;;;;;;;1.20;0.80;;;21.60;99.90;;;;;;5157500;27;20453;-63
2021/06/02 08:43:05;;;;;;;1.10;0.70;;;21.80;99.00;;;;;;5156256;27;20836;-63
2021/06/02 08:45:31;;;;;;;0.80;0.60;;;21.90;98.40;;;;;;5137117;27;20862;-62
2021/06/02 08:47:58;;;;;;;0.80;0.60;;;22.00;94.80;;;;;;5133642;27;20441;-63
2021/06/02 08:50:25;;;;;;;1.00;0.50;;;22.00;90.20;;;;;;5133926;27;20426;-62
2021/06/02 08:52:52;;;;;;;1.85;0.50;;;22.10;87.60;;;;;;5127887;27;20428;-63
2021/06/02 08:55:20;;;;;;;0.80;0.50;;;22.10;80.80;;;;;;5138575;27;20430;-63
2021/06/02 08:57:53;;;;;;;0.90;0.52;;;21.90;84.70;;;;;;5135616;27;20421;-62
2021/06/02 09:00:23;;;;;;;0.80;0.50;;;21.90;86.00;;;;;;5135522;27;20426;-63
2021/06/02 09:02:53;;;;;;;0.60;0.50;;;22.00;85.90;;;;;;5135665;27;20414;-63
2021/06/02 09:05:21;;;;;;;0.90;0.60;;;22.20;84.80;;;;;;5134760;27;20426;-63
2021/06/02 09:07:50;;;;;;;1.87;0.60;;;22.40;85.00;;;;;;5134693;27;20437;-63
2021/06/02 09:10:18;;;;;;;2.13;0.60;;;22.60;85.90;;;;;;5135769;27;20458;-63
2021/06/02 09:12:45;;;;;;;1.00;0.60;;;22.80;85.00;;;;;;5133199;27;20556;-64
2021/06/02 09:15:15;;;;;;;1.50;0.52;;;22.90;84.10;;;;;;5135226;27;20517;-63
2021/06/02 09:18:04;;;;;;;0.80;0.60;;;23.00;84.60;;;;;;5135936;27;20503;-64
2021/06/02 09:20:36;;;;;;;0.80;0.60;;;23.30;83.30;;;;;;5134988;27;20429;-63
2021/06/02 09:23:23;;;;;;;1.00;0.60;;;23.40;78.10;;;;;;5134051;27;20426;-63
2021/06/02 09:25:50;;;;;;;0.80;0.60;;;23.20;79.60;;;;;;5133833;27;20829;-64
2021/06/02 09:28:17;;;;;;;0.70;0.50;;;23.30;81.00;;;;;;5133077;27;20438;-64
2021/06/02 09:30:43;;;;;;;1.73;0.60;;;23.40;78.10;;;;;;5133597;27;20431;-64
2021/06/02 09:33:12;;;;;;;1.50;0.60;;;23.60;78.20;;;;;;5131203;27;20473;-65
2021/06/02 09:35:40;;;;;;;0.80;0.60;;;23.90;81.10;;;;;;5132493;27;20482;-63
2021/06/02 09:38:07;;;;;;;1.10;0.70;;;23.80;78.40;;;;;;5134100;27;20418;-64
2021/06/02 09:40:36;;;;;;;1.08;0.70;;;23.70;78.10;;;;;;5132636;27;20512;-64
2021/06/02 09:43:03;;;;;;;0.80;0.60;;;23.70;80.10;;;;;;5133905;27;20418;-64
2021/06/02 09:45:30;;;;;;;0.82;0.60;;;23.90;79.30;;;;;;5132918;27;20882;-64
2021/06/02 09:48:00;;;;;;;1.30;0.60;;;24.00;75.80;;;;;;5133814;27;20422;-64
2021/06/02 09:50:29;;;;;;;2.30;0.60;;;24.30;76.40;;;;;;5131760;27;20438;-65
2021/06/02 09:52:58;;;;;;;0.90;0.60;;;24.50;74.40;;;;;;5133081;27;21120;-64
2021/06/02 09:55:26;;;;;;;1.20;0.60;;;24.90;70.70;;;;;;5132292;27;20915;-64
2021/06/02 09:58:10;;;;;;;1.55;0.75;;;24.80;70.70;;;;;;5131986;27;20462;-64
2021/06/02 10:00:39;;;;;;;0.80;0.60;;;25.00;69.00;;;;;;5132959;27;20475;-64
2021/06/02 10:03:10;;;;;;;1.00;0.60;;;25.20;67.20;;;;;;5123447;27;20440;-64
2021/06/02 10:05:39;;;;;;;0.80;0.50;;;25.30;65.10;;;;;;5113276;28;20531;-64
2021/06/02 10:08:06;;;;;;;1.30;0.60;;;25.40;65.50;;;;;;5119870;27;20432;-64
2021/06/02 10:10:33;;;;;;;1.20;0.50;;;25.50;63.10;;;;;;5154743;27;20421;-64
2021/06/02 10:13:03;;;;;;;1.10;0.60;;;25.70;63.30;;;;;;5126681;27;20422;-66
2021/06/02 10:15:33;;;;;;;1.00;0.60;;;26.10;61.00;;;;;;5133531;27;20528;-63
2021/06/02 10:18:01;;;;;;;2.60;0.60;;;26.40;60.10;;;;;;5133248;27;20422;-63
2021/06/02 10:20:28;;;;;;;1.20;0.60;;;26.50;59.40;;;;;;5132790;27;20426;-63
2021/06/02 10:22:57;;;;;;;1.52;0.60;;;26.80;58.80;;;;;;5134390;27;20426;-65
2021/06/02 10:25:25;;;;;;;0.70;0.50;;;27.20;57.40;;;;;;5132716;27;20528;-64
2021/06/02 10:27:56;;;;;;;0.70;0.60;;;27.20;56.40;;;;;;5134777;27;20862;-65
2021/06/02 10:30:25;;;;;;;1.37;0.60;;;27.20;55.50;;;;;;5136728;27;20426;-66
2021/06/02 10:32:56;;;;;;;0.80;0.60;;;27.00;55.70;;;;;;5136488;27;20414;-66
2021/06/02 10:35:26;;;;;;;0.80;0.60;;;27.00;55.50;;;;;;5134450;27;20458;-65
2021/06/02 10:37:55;;;;;;;0.60;0.50;;;27.10;54.70;;;;;;5128154;27;20438;-65
2021/06/02 10:40:25;;;;;;;1.10;0.60;;;27.30;54.80;;;;;;5131936;27;20452;-66
2021/06/02 10:42:57;;;;;;;0.60;0.50;;;27.70;53.80;;;;;;5130450;27;20455;-66
2021/06/02 10:45:27;;;;;;;0.70;0.60;;;28.10;53.20;;;;;;5131685;27;20860;-66
2021/06/02 10:47:55;;;;;;;0.70;0.50;;;28.20;52.50;;;;;;5134249;27;20490;-64
2021/06/02 10:50:34;;;;;;;0.90;0.60;;;28.40;51.80;;;;;;5135153;28;20880;-64
2021/06/02 10:53:01;;;;;;;1.20;0.50;;;28.20;52.80;;;;;;5134710;27;20422;-65
2021/06/02 10:55:43;;;;;;;0.90;0.60;;;28.10;50.80;;;;;;5133930;27;20441;-64
2021/06/02 10:58:21;;;;;;;0.90;0.60;;;28.00;51.20;;;;;;5126579;27;20533;-65
2021/06/02 11:00:49;;;;;;;0.70;0.60;;;28.40;50.70;;;;;;5139893;27;20448;-65
2021/06/02 11:03:28;;;;;;;1.10;0.60;;;28.60;49.90;;;;;;5153777;27;20413;-65
2021/06/02 11:05:59;;;;;;;0.80;0.60;;;28.90;49.60;;;;;;5147806;27;20441;-65
2021/06/02 11:08:59;;;;;;;0.90;0.60;;;29.00;48.10;;;;;;5154542;27;20477;-64
2021/06/02 11:11:29;;;;;;;1.20;0.60;;;29.10;48.00;;;;;;5151488;27;20429;-64
2021/06/02 11:14:29;;;;;;;1.45;0.70;;;29.50;47.10;;;;;;5154764;27;20440;-65
2021/06/02 11:17:09;;;;;;;0.70;0.55;;;30.00;47.20;;;;;;5134458;27;20465;-63
2021/06/02 11:19:42;;;;;;;0.90;0.60;;;29.90;46.70;;;;;;5131278;27;20426;-66
2021/06/02 11:22:18;;;;;;;0.80;0.60;;;29.30;45.80;;;;;;5135740;27;20454;-66
2021/06/02 11:24:58;;;;;;;1.00;0.60;;;29.40;46.30;;;;;;5145012;27;20454;-66
2021/06/02 11:27:39;;;;;;;1.10;0.60;;;29.60;45.60;;;;;;5137911;27;20509;-65
2021/06/02 11:30:23;;;;;;;0.90;0.60;;;29.80;45.40;;;;;;5136557;27;20454;-65
2021/06/02 11:32:59;;;;;;;0.80;0.60;;;29.80;44.60;;;;;;5136653;27;21055;-66
2021/06/02 11:36:15;;;;;;;0.70;0.60;;;29.80;45.10;;;;;;5135198;27;20475;-64
2021/06/02 11:39:00;;;;;;;1.65;0.70;;;29.50;44.30;;;;;;5135335;27;20846;-66
2021/06/02 11:41:27;;;;;;;0.70;0.50;;;30.00;44.40;;;;;;5134897;27;20471;-67
2021/06/02 11:43:54;;;;;;;0.90;0.60;;;30.10;44.10;;;;;;5136545;27;20947;-65
2021/06/02 11:46:21;;;;;;;0.70;0.50;;;30.20;43.40;;;;;;5136774;27;20483;-65
2021/06/02 11:48:47;;;;;;;0.90;0.50;;;30.30;43.00;;;;;;5137474;27;20502;-65
2021/06/02 11:51:14;;;;;;;1.02;0.60;;;30.00;43.20;;;;;;5137861;27;20477;-64
2021/06/02 11:53:46;;;;;;;0.70;0.50;;;30.50;43.80;;;;;;5135761;27;20434;-65
2021/06/02 11:56:13;;;;;;;0.98;0.60;;;30.80;42.70;;;;;;5135764;27;20513;-65
2021/06/02 11:58:40;;;;;;;0.70;0.50;;;30.50;42.40;;;;;;5136374;27;20479;-64
2021/06/02 12:01:08;;;;;;;0.80;0.57;;;30.10;42.20;;;;;;5137379;27;20422;-64
2021/06/02 12:03:35;;;;;;;0.75;0.50;;;30.20;42.00;;;;;;5137440;27;20430;-68
2021/06/02 12:06:03;;;;;;;0.60;0.50;;;30.60;42.00;;;;;;5137473;27;21019;-66
2021/06/02 12:08:30;;;;;;;0.80;0.50;;;30.90;41.80;;;;;;5136870;27;20423;-68
2021/06/02 12:10:58;;;;;;;1.08;0.52;;;31.10;41.30;;;;;;5135357;27;20441;-68
2021/06/02 12:13:27;;;;;;;0.68;0.50;;;31.20;41.60;;;;;;5136160;27;20415;-67
2021/06/02 12:15:55;;;;;;;1.10;0.50;;;31.30;40.90;;;;;;5136850;27;20445;-68
2021/06/02 12:18:33;;;;;;;0.70;0.50;;;31.30;40.50;;;;;;5135357;27;20415;-68
2021/06/02 12:21:12;;;;;;;1.40;0.60;;;30.70;41.00;;;;;;5136190;27;20457;-69
2021/06/02 12:23:56;;;;;;;0.80;0.52;;;30.90;41.70;;;;;;5136677;27;20473;-69
2021/06/02 12:26:29;;;;;;;1.70;0.60;;;30.70;41.90;;;;;;5134571;27;20441;-68
2021/06/02 12:28:58;;;;;;;1.60;0.50;;;30.60;42.10;;;;;;5136266;27;20767;-68
2021/06/02 12:31:32;;;;;;;2.20;0.57;;;31.10;41.80;;;;;;5134796;27;20418;-69
2021/06/02 12:34:06;;;;;;;0.60;0.53;;;31.50;40.60;;;;;;5135962;27;20415;-71
2021/06/02 12:36:33;;;;;;;1.30;0.60;;;31.10;41.40;;;;;;5134793;27;20487;-68
2021/06/02 12:39:07;;;;;;;0.70;0.50;;;31.30;41.80;;;;;;5132064;27;20422;-68
2021/06/02 12:41:34;;;;;;;0.60;0.50;;;31.50;40.60;;;;;;5135886;27;20885;-67
2021/06/02 12:44:03;;;;;;;0.80;0.60;;;31.30;40.40;;;;;;5135325;27;20430;-66
2021/06/02 12:46:30;;;;;;;0.80;0.60;;;31.50;40.30;;;;;;5140717;27;20794;-67
2021/06/02 12:48:57;;;;;;;1.20;0.50;;;31.80;39.70;;;;;;5149359;27;20413;-68
2021/06/02 12:51:27;;;;;;;0.80;0.60;;;32.10;39.00;;;;;;5135569;27;20849;-67
2021/06/02 12:53:54;;;;;;;0.70;0.50;;;31.90;39.30;;;;;;5136262;27;20725;-68
2021/06/02 12:56:22;;;;;;;0.70;0.50;;;31.50;39.70;;;;;;5130161;27;20438;-64
2021/06/02 12:58:53;;;;;;;0.60;0.50;;;31.50;39.30;;;;;;5136744;27;20426;-68
2021/06/02 13:01:21;;;;;;;0.70;0.50;;;31.10;39.30;;;;;;5135867;27;20426;-68
2021/06/02 13:03:50;;;;;;;0.80;0.50;;;31.30;39.90;;;;;;5136284;27;20906;-66
2021/06/02 13:06:18;;;;;;;1.00;0.50;;;31.60;39.10;;;;;;5134850;27;20426;-68
2021/06/02 13:08:47;;;;;;;0.85;0.50;;;31.70;39.00;;;;;;5133752;27;20406;-67
2021/06/02 13:11:19;;;;;;;0.98;0.60;;;31.80;39.00;;;;;;5132937;27;20475;-68
2021/06/02 13:13:49;;;;;;;1.00;0.50;;;31.80;39.10;;;;;;5133679;27;20459;-67
2021/06/02 13:16:16;;;;;;;0.98;0.55;;;31.80;38.60;;;;;;5135095;27;20418;-68
2021/06/02 13:18:53;;;;;;;0.70;0.50;;;31.70;39.40;;;;;;5134635;27;20426;-67
2021/06/02 13:21:25;;;;;;;0.90;0.50;;;31.80;39.70;;;;;;5134696;27;20799;-68
2021/06/02 13:24:10;;;;;;;0.70;0.50;;;31.90;39.30;;;;;;5127551;27;20883;-68
2021/06/02 13:26:58;;;;;;;0.80;0.40;;;31.00;39.80;;;;;;5136732;27;20835;-67
2021/06/02 13:29:26;;;;;;;2.17;0.50;;;31.20;39.90;;;;;;5136889;27;20415;-67
2021/06/02 13:31:58;;;;;;;0.70;0.50;;;31.20;40.10;;;;;;5151428;27;20440;-67
2021/06/02 13:34:33;;;;;;;0.80;0.50;;;30.70;40.30;;;;;;5151271;27;20410;-67